Time;durP1;ratioP1;P1;durP2;ratioP2;P2;SDS_P1;SDS_P2;PMS_P1;PMS_P2;Temp;Humidity;BMP_temperature;BMP_pressure;BME280_temperature;BME280_humidity;BME280_pressure;Samples;Min_cycle;Max_cycle;Signal;HPM_P1;HPM_P2
2022/11/15 00:03:26;;;;;;;11.75;8.13;;;;;;;;;;10495149;28;20210;-66
2022/11/15 00:08:46;;;;;;;9.95;7.18;;;;;;;;;;10501694;28;20209;-67
2022/11/15 00:14:06;;;;;;;12.90;7.97;;;;;;;;;;10505273;28;20330;-66
2022/11/15 00:19:26;;;;;;;14.15;7.88;;;;;;;;;;10490119;28;20237;-66
2022/11/15 00:24:45;;;;;;;12.50;8.10;;;;;;;;;;10505101;28;20209;-66
2022/11/15 00:30:05;;;;;;;14.45;8.10;;;;;;;;;;10505530;28;20654;-66
2022/11/15 00:35:26;;;;;;;13.27;7.50;;;;;;;;;;10502990;28;20209;-66
2022/11/15 00:40:46;;;;;;;11.98;7.93;;;;;;;;;;10507261;28;20213;-65
2022/11/15 00:46:07;;;;;;;13.77;8.23;;;;;;;;;;10501246;28;20214;-67
2022/11/15 00:51:28;;;;;;;10.65;7.70;;;;;;;;;;10490318;28;20209;-68
2022/11/15 00:56:48;;;;;;;14.27;8.48;;;;;;;;;;10489757;28;20206;-66
2022/11/15 01:02:08;;;;;;;10.18;6.75;;;;;;;;;;10503068;28;20221;-67
2022/11/15 01:07:28;;;;;;;14.18;8.10;;;;;;;;;;10501879;28;20685;-66
2022/11/15 01:12:48;;;;;;;12.98;6.75;;;;;;;;;;10500493;28;20684;-67
2022/11/15 01:18:08;;;;;;;14.57;7.45;;;;;;;;;;10489601;28;20657;-66
2022/11/15 01:23:28;;;;;;;14.48;7.80;;;;;;;;;;10503566;28;20707;-66
2022/11/15 01:28:47;;;;;;;13.23;8.02;;;;;;;;;;10492666;28;20887;-66
2022/11/15 01:34:07;;;;;;;18.00;7.63;;;;;;;;;;10491883;28;20210;-66
2022/11/15 01:39:27;;;;;;;14.02;7.97;;;;;;;;;;10487786;28;20224;-66
2022/11/15 01:44:50;;;;;;;12.52;7.78;;;;;;;;;;10503690;28;20642;-65
2022/11/15 01:50:11;;;;;;;14.10;8.40;;;;;;;;;;10496522;28;20206;-67
2022/11/15 01:55:31;;;;;;;12.35;7.30;;;;;;;;;;10499353;28;20202;-67
2022/11/15 02:00:52;;;;;;;10.65;7.57;;;;;;;;;;10503045;28;20745;-66
2022/11/15 02:06:12;;;;;;;11.07;7.50;;;;;;;;;;10498587;28;20225;-67
2022/11/15 02:11:32;;;;;;;11.52;6.88;;;;;;;;;;10499421;28;20681;-66
2022/11/15 02:17:10;;;;;;;8.90;7.10;;;;;;;;;;10496374;28;20677;-67
2022/11/15 02:22:42;;;;;;;12.35;6.80;;;;;;;;;;10457487;28;20222;-66
2022/11/15 02:28:02;;;;;;;12.65;7.47;;;;;;;;;;10440038;28;20300;-67
2022/11/15 02:33:51;;;;;;;12.48;7.38;;;;;;;;;;10455667;28;20219;-65
2022/11/15 02:39:17;;;;;;;10.98;7.15;;;;;;;;;;10450631;28;20215;-66
2022/11/15 02:44:43;;;;;;;13.90;7.65;;;;;;;;;;10442700;28;20724;-66
2022/11/15 02:50:15;;;;;;;7.93;6.32;;;;;;;;;;10456202;28;20193;-66
2022/11/15 02:55:36;;;;;;;13.63;6.90;;;;;;;;;;10455752;28;20202;-66
2022/11/15 03:01:07;;;;;;;13.20;6.90;;;;;;;;;;10454372;28;20211;-66
2022/11/15 03:06:27;;;;;;;15.20;8.45;;;;;;;;;;10454289;28;20214;-66
2022/11/15 03:11:49;;;;;;;14.15;7.72;;;;;;;;;;10454862;28;20218;-67
2022/11/15 03:17:34;;;;;;;13.38;8.20;;;;;;;;;;10456945;28;21006;-67
2022/11/15 03:22:55;;;;;;;10.82;7.53;;;;;;;;;;10497116;28;20312;-66
2022/11/15 03:28:24;;;;;;;10.85;6.75;;;;;;;;;;10498745;28;20610;-67
2022/11/15 03:33:44;;;;;;;11.07;7.28;;;;;;;;;;10497857;28;20690;-67
2022/11/15 03:39:06;;;;;;;11.90;7.13;;;;;;;;;;10490390;28;20209;-67
2022/11/15 03:44:35;;;;;;;11.45;7.63;;;;;;;;;;10496283;28;20218;-67
2022/11/15 03:49:59;;;;;;;13.40;7.20;;;;;;;;;;10490992;28;20217;-66
2022/11/15 03:55:19;;;;;;;11.38;6.47;;;;;;;;;;10503626;28;20309;-67
2022/11/15 04:00:39;;;;;;;11.48;6.65;;;;;;;;;;10491832;28;20217;-67
2022/11/15 04:05:59;;;;;;;12.60;6.82;;;;;;;;;;10489816;28;20642;-66
2022/11/15 04:11:18;;;;;;;14.85;8.10;;;;;;;;;;10505090;28;20229;-66
2022/11/15 04:16:38;;;;;;;10.57;6.70;;;;;;;;;;10499595;28;20213;-67
2022/11/15 04:27:37;;;;;;;7.50;5.57;;;;;;;;;;10462264;28;20214;-67
2022/11/15 04:32:57;;;;;;;13.80;7.38;;;;;;;;;;10459450;28;20215;-67
2022/11/15 04:38:17;;;;;;;10.02;7.45;;;;;;;;;;10461894;28;20215;-66
2022/11/15 04:43:37;;;;;;;13.88;6.28;;;;;;;;;;10457214;28;20660;-67
2022/11/15 04:48:57;;;;;;;14.50;7.95;;;;;;;;;;10460741;28;20210;-66
2022/11/15 04:54:16;;;;;;;9.73;7.18;;;;;;;;;;10449723;28;20214;-66
2022/11/15 04:59:36;;;;;;;11.98;7.47;;;;;;;;;;10459397;28;20215;-67
2022/11/15 05:04:56;;;;;;;8.55;5.97;;;;;;;;;;10462649;28;20219;-67
2022/11/15 05:10:16;;;;;;;11.40;6.32;;;;;;;;;;10422445;28;20731;-67
2022/11/15 05:15:36;;;;;;;9.13;6.70;;;;;;;;;;10445927;28;20209;-67
2022/11/15 05:20:56;;;;;;;11.55;7.90;;;;;;;;;;10493418;28;20237;-65
2022/11/15 05:26:17;;;;;;;12.32;7.65;;;;;;;;;;10491229;28;20232;-67
2022/11/15 05:31:40;;;;;;;7.35;5.95;;;;;;;;;;10493351;28;20688;-66
2022/11/15 05:36:59;;;;;;;12.30;6.95;;;;;;;;;;10488711;28;20205;-67
2022/11/15 05:42:19;;;;;;;10.13;6.90;;;;;;;;;;10491490;28;20660;-67
2022/11/15 05:47:39;;;;;;;7.57;6.38;;;;;;;;;;10490434;28;20518;-67
2022/11/15 05:52:59;;;;;;;10.43;6.63;;;;;;;;;;10479073;28;20218;-66
2022/11/15 05:58:20;;;;;;;12.02;6.93;;;;;;;;;;10493456;28;20260;-67
2022/11/15 06:03:39;;;;;;;9.40;5.90;;;;;;;;;;10500574;28;20669;-68
2022/11/15 06:08:59;;;;;;;10.13;6.53;;;;;;;;;;10485349;28;21001;-68
2022/11/15 06:14:18;;;;;;;7.70;5.95;;;;;;;;;;10488365;28;20596;-68
2022/11/15 06:19:38;;;;;;;10.60;6.50;;;;;;;;;;10496022;28;20226;-68
2022/11/15 06:24:58;;;;;;;7.72;5.90;;;;;;;;;;10493504;28;20804;-68
2022/11/15 06:30:18;;;;;;;13.50;6.18;;;;;;;;;;10501901;28;20696;-68
2022/11/15 06:35:37;;;;;;;9.40;6.18;;;;;;;;;;10497567;28;20214;-68
2022/11/15 06:41:04;;;;;;;8.02;5.90;;;;;;;;;;10479568;28;20210;-68
2022/11/15 06:46:24;;;;;;;6.88;5.40;;;;;;;;;;10495536;28;20210;-68
2022/11/15 06:51:44;;;;;;;9.32;5.88;;;;;;;;;;10494645;28;20206;-69
2022/11/15 06:57:04;;;;;;;8.50;5.25;;;;;;;;;;10498364;28;20213;-68
2022/11/15 07:02:24;;;;;;;10.15;6.13;;;;;;;;;;10491665;28;20213;-68
2022/11/15 07:07:44;;;;;;;7.32;5.85;;;;;;;;;;10494004;28;20207;-69
2022/11/15 07:13:03;;;;;;;13.32;6.45;;;;;;;;;;10494753;28;20728;-69
2022/11/15 07:18:23;;;;;;;10.43;5.72;;;;;;;;;;10500840;28;20892;-68
2022/11/15 07:23:43;;;;;;;6.32;5.57;;;;;;;;;;10490411;28;20340;-69
2022/11/15 07:29:02;;;;;;;8.40;5.78;;;;;;;;;;10507200;28;21086;-69
2022/11/15 07:34:23;;;;;;;8.38;6.18;;;;;;;;;;10493225;28;20209;-69
2022/11/15 07:39:44;;;;;;;10.40;7.03;;;;;;;;;;10489909;28;20788;-69
2022/11/15 07:45:04;;;;;;;18.20;6.95;;;;;;;;;;10486505;28;20226;-65
2022/11/15 07:50:24;;;;;;;8.80;6.60;;;;;;;;;;10492286;28;20623;-65
2022/11/15 07:55:44;;;;;;;13.57;6.57;;;;;;;;;;10500020;28;20209;-66
2022/11/15 08:01:04;;;;;;;11.80;6.80;;;;;;;;;;10501256;28;20227;-68
2022/11/15 08:06:24;;;;;;;11.43;6.95;;;;;;;;;;10496024;28;20210;-67
2022/11/15 08:11:44;;;;;;;14.77;7.55;;;;;;;;;;10506065;28;20227;-67
2022/11/15 08:17:04;;;;;;;13.98;7.60;;;;;;;;;;10495193;28;20206;-68
2022/11/15 08:22:24;;;;;;;8.82;6.95;;;;;;;;;;10500256;28;20217;-68
2022/11/15 08:27:44;;;;;;;13.90;7.07;;;;;;;;;;10493536;28;20209;-66
2022/11/15 08:33:04;;;;;;;8.73;6.68;;;;;;;;;;10502199;28;20209;-69
2022/11/15 08:38:24;;;;;;;8.20;5.93;;;;;;;;;;10499110;28;20208;-69
2022/11/15 08:43:44;;;;;;;12.15;7.40;;;;;;;;;;10484818;28;20248;-70
2022/11/15 08:49:03;;;;;;;11.98;6.90;;;;;;;;;;10487646;28;20210;-68
2022/11/15 08:54:23;;;;;;;9.65;6.75;;;;;;;;;;10495805;28;20214;-68
2022/11/15 08:59:42;;;;;;;9.20;6.25;;;;;;;;;;10493455;28;20213;-70
2022/11/15 09:05:02;;;;;;;9.73;6.43;;;;;;;;;;10480751;28;21165;-68
2022/11/15 09:10:23;;;;;;;10.02;5.80;;;;;;;;;;10488201;28;20667;-69
2022/11/15 09:15:43;;;;;;;9.73;5.60;;;;;;;;;;10495769;28;20205;-69
2022/11/15 09:21:04;;;;;;;10.73;5.90;;;;;;;;;;10499140;28;20225;-68
2022/11/15 09:26:23;;;;;;;8.70;5.32;;;;;;;;;;10502322;28;20705;-69
2022/11/15 09:31:43;;;;;;;7.13;4.88;;;;;;;;;;10500256;28;20201;-70
2022/11/15 09:37:03;;;;;;;5.47;4.57;;;;;;;;;;10498597;28;20215;-70
2022/11/15 09:42:30;;;;;;;8.00;4.80;;;;;;;;;;10489005;28;20217;-69
2022/11/15 09:47:57;;;;;;;7.85;3.85;;;;;;;;;;10482494;28;20623;-68
2022/11/15 09:53:32;;;;;;;5.75;5.20;;;;;;;;;;10483497;28;20234;-69
2022/11/15 09:58:54;;;;;;;5.30;4.72;;;;;;;;;;10495839;28;20205;-69
2022/11/15 10:03:58;;;;;;;6.68;4.80;;;;;;;;;;10498986;28;20225;-68
2022/11/15 10:09:03;;;;;;;4.32;3.78;;;;;;;;;;10489642;28;20239;-69
2022/11/15 10:14:11;;;;;;;4.45;4.05;;;;;;;;;;10493805;28;21058;-69
2022/11/15 10:19:18;;;;;;;4.28;3.97;;;;;;;;;;10494341;28;20229;-69
2022/11/15 10:24:20;;;;;;;7.03;4.07;;;;;;;;;;10478092;28;20229;-69
2022/11/15 10:29:22;;;;;;;4.05;3.75;;;;;;;;;;10492752;28;20202;-70
2022/11/15 10:34:24;;;;;;;7.40;4.05;;;;;;;;;;10500447;28;20217;-69
2022/11/15 10:39:27;;;;;;;4.45;4.05;;;;;;;;;;10484417;28;20206;-69
2022/11/15 10:44:31;;;;;;;6.82;5.38;;;;;;;;;;10486838;28;20217;-69
2022/11/15 10:49:33;;;;;;;5.25;4.85;;;;;;;;;;10491767;28;20209;-69
2022/11/15 10:54:36;;;;;;;4.63;4.32;;;;;;;;;;10474219;28;20222;-68
2022/11/15 10:59:38;;;;;;;4.78;4.25;;;;;;;;;;10477629;28;20278;-67
2022/11/15 11:04:52;;;;;;;5.13;4.65;;;;;;;;;;10498450;28;20904;-67
2022/11/15 11:10:17;;;;;;;4.20;3.85;;;;;;;;;;10492121;28;20218;-68
2022/11/15 11:15:18;;;;;;;3.55;3.13;;;;;;;;;;10500033;28;20213;-69
2022/11/15 11:20:29;;;;;;;3.67;3.28;;;;;;;;;;10498763;28;20225;-70
2022/11/15 11:25:40;;;;;;;3.85;3.35;;;;;;;;;;10467528;28;20229;-69
2022/11/15 11:30:47;;;;;;;4.95;3.00;;;;;;;;;;10494399;28;20221;-70
2022/11/15 11:36:07;;;;;;;4.60;4.18;;;;;;;;;;10495032;28;20218;-70
2022/11/15 11:41:26;;;;;;;5.82;3.38;;;;;;;;;;10487127;28;20594;-70
2022/11/15 11:46:46;;;;;;;3.60;3.40;;;;;;;;;;10481743;28;20215;-70
2022/11/15 11:51:56;;;;;;;3.08;2.88;;;;;;;;;;10499919;28;20582;-70
2022/11/15 11:56:59;;;;;;;7.38;3.60;;;;;;;;;;10490253;28;20275;-72
2022/11/15 12:02:08;;;;;;;6.10;4.32;;;;;;;;;;10473476;28;20218;-72
2022/11/15 12:07:13;;;;;;;4.65;4.07;;;;;;;;;;10493290;28;20233;-72
2022/11/15 12:12:18;;;;;;;4.72;4.38;;;;;;;;;;10483175;28;20205;-71
2022/11/15 12:17:22;;;;;;;3.13;2.92;;;;;;;;;;10503094;28;20283;-72
2022/11/15 12:22:25;;;;;;;4.43;3.50;;;;;;;;;;10490838;28;20214;-72
2022/11/15 12:27:41;;;;;;;4.80;4.32;;;;;;;;;;10502289;28;20218;-74
2022/11/15 12:33:01;;;;;;;3.92;3.50;;;;;;;;;;10481792;28;20656;-73
2022/11/15 12:38:02;;;;;;;3.10;2.90;;;;;;;;;;10482871;28;20210;-72
2022/11/15 12:43:08;;;;;;;3.28;3.08;;;;;;;;;;10487143;28;20217;-71
2022/11/15 12:48:18;;;;;;;3.75;3.47;;;;;;;;;;10505459;28;20686;-72
2022/11/15 12:53:23;;;;;;;5.25;3.03;;;;;;;;;;10488452;28;20210;-71
2022/11/15 12:58:29;;;;;;;4.10;2.88;;;;;;;;;;10496744;28;20287;-71
2022/11/15 13:03:34;;;;;;;3.97;3.60;;;;;;;;;;10497526;28;20214;-73
2022/11/15 13:08:40;;;;;;;3.30;3.10;;;;;;;;;;10489544;28;20201;-74
2022/11/15 13:13:45;;;;;;;3.22;2.90;;;;;;;;;;10493602;28;20210;-71
2022/11/15 13:18:53;;;;;;;4.00;2.85;;;;;;;;;;10476383;28;20316;-71
2022/11/15 13:23:55;;;;;;;5.40;3.45;;;;;;;;;;10486808;28;20804;-71
2022/11/15 13:28:56;;;;;;;3.45;3.15;;;;;;;;;;10475999;28;21134;-71
2022/11/15 13:34:00;;;;;;;2.67;2.55;;;;;;;;;;10504233;28;20363;-71
2022/11/15 13:39:06;;;;;;;4.13;2.95;;;;;;;;;;10492012;28;20213;-71
2022/11/15 13:44:19;;;;;;;3.90;3.55;;;;;;;;;;10484487;28;20978;-70
2022/11/15 13:49:29;;;;;;;3.53;3.10;;;;;;;;;;10479127;28;20202;-71
2022/11/15 13:54:36;;;;;;;3.28;2.85;;;;;;;;;;10494833;28;20214;-71
2022/11/15 13:59:44;;;;;;;4.45;2.72;;;;;;;;;;10497165;28;20717;-71
2022/11/15 14:04:47;;;;;;;2.85;2.70;;;;;;;;;;10493480;28;20751;-71
2022/11/15 14:09:49;;;;;;;3.22;3.05;;;;;;;;;;10502022;28;20217;-71
2022/11/15 14:14:50;;;;;;;4.05;3.03;;;;;;;;;;10482380;28;20214;-71
2022/11/15 14:19:51;;;;;;;5.75;2.90;;;;;;;;;;10499380;28;20228;-72
2022/11/15 14:25:15;;;;;;;6.13;3.30;;;;;;;;;;10492671;28;20209;-72
2022/11/15 14:30:17;;;;;;;3.28;2.80;;;;;;;;;;10496791;28;20294;-71
2022/11/15 14:35:19;;;;;;;4.57;2.53;;;;;;;;;;10483748;28;20206;-71
2022/11/15 14:40:21;;;;;;;3.03;2.80;;;;;;;;;;10496877;28;20179;-71
2022/11/15 14:45:23;;;;;;;7.72;2.70;;;;;;;;;;10481142;28;20941;-71
2022/11/15 14:50:24;;;;;;;4.18;2.97;;;;;;;;;;10492930;28;20213;-70
2022/11/15 14:55:30;;;;;;;3.05;2.67;;;;;;;;;;10490597;28;20741;-70
2022/11/15 15:00:32;;;;;;;4.20;2.60;;;;;;;;;;10500872;28;20336;-71
2022/11/15 15:05:36;;;;;;;2.72;2.53;;;;;;;;;;10503872;28;20229;-74
2022/11/15 15:10:38;;;;;;;2.88;2.70;;;;;;;;;;10455006;28;20595;-71
2022/11/15 15:15:40;;;;;;;3.90;2.58;;;;;;;;;;10472875;28;20717;-71
2022/11/15 15:20:42;;;;;;;2.47;2.38;;;;;;;;;;10496946;28;20225;-73
2022/11/15 15:25:45;;;;;;;2.83;2.63;;;;;;;;;;10493068;28;20225;-72
2022/11/15 15:30:46;;;;;;;2.72;2.47;;;;;;;;;;10473818;28;20583;-72
2022/11/15 15:35:47;;;;;;;2.67;2.45;;;;;;;;;;10498982;28;20205;-73
2022/11/15 15:40:49;;;;;;;2.67;2.47;;;;;;;;;;10488153;28;20221;-72
2022/11/15 15:45:51;;;;;;;3.28;2.58;;;;;;;;;;10504893;28;20217;-73
2022/11/15 15:50:52;;;;;;;2.55;2.45;;;;;;;;;;10476486;28;20228;-74
2022/11/15 15:55:53;;;;;;;3.00;2.80;;;;;;;;;;10500887;28;20217;-73
2022/11/15 16:00:54;;;;;;;2.25;2.15;;;;;;;;;;10502620;28;20585;-73
2022/11/15 16:05:55;;;;;;;3.25;2.60;;;;;;;;;;10502993;28;20264;-74
2022/11/15 16:10:57;;;;;;;2.88;2.78;;;;;;;;;;10507125;28;20222;-72
2022/11/15 16:15:58;;;;;;;5.57;3.28;;;;;;;;;;10506447;28;20213;-73
2022/11/15 16:21:00;;;;;;;3.28;2.78;;;;;;;;;;10505578;28;20229;-72
2022/11/15 16:26:02;;;;;;;4.70;3.50;;;;;;;;;;10505549;28;20225;-71
2022/11/15 16:31:04;;;;;;;3.70;3.40;;;;;;;;;;10504637;28;20217;-71
2022/11/15 16:36:06;;;;;;;3.55;3.25;;;;;;;;;;10481507;28;20690;-71
2022/11/15 16:41:08;;;;;;;2.85;2.75;;;;;;;;;;10505035;28;20214;-71
2022/11/15 16:46:19;;;;;;;3.47;3.17;;;;;;;;;;10503505;28;20311;-73
2022/11/15 16:51:20;;;;;;;3.47;3.30;;;;;;;;;;10505779;28;20209;-74
2022/11/15 16:56:29;;;;;;;4.70;4.38;;;;;;;;;;10499960;28;20233;-73
2022/11/15 17:01:31;;;;;;;3.65;3.45;;;;;;;;;;10504441;28;20288;-74
2022/11/15 17:06:33;;;;;;;3.70;3.50;;;;;;;;;;10481526;28;20740;-73
2022/11/15 17:11:34;;;;;;;4.93;3.70;;;;;;;;;;10493041;28;20218;-72
2022/11/15 17:16:37;;;;;;;4.88;4.20;;;;;;;;;;10506293;28;20202;-72
2022/11/15 17:21:38;;;;;;;3.97;3.63;;;;;;;;;;10504637;28;20304;-72
2022/11/15 17:26:39;;;;;;;4.47;3.70;;;;;;;;;;10507922;28;20229;-73
2022/11/15 17:31:40;;;;;;;5.32;4.88;;;;;;;;;;10495681;28;20205;-73
2022/11/15 17:36:42;;;;;;;7.15;4.85;;;;;;;;;;10496502;28;20237;-72
2022/11/15 17:41:43;;;;;;;5.00;4.60;;;;;;;;;;10504043;28;20304;-73
2022/11/15 17:46:44;;;;;;;7.78;5.70;;;;;;;;;;10498463;28;20214;-74
2022/11/15 17:51:45;;;;;;;7.75;5.75;;;;;;;;;;10499231;28;20209;-72
2022/11/15 17:56:46;;;;;;;14.50;6.65;;;;;;;;;;10490234;28;20210;-71
2022/11/15 18:01:47;;;;;;;5.93;5.32;;;;;;;;;;10497937;28;20255;-72
2022/11/15 18:06:49;;;;;;;7.68;5.32;;;;;;;;;;10496555;28;20292;-73
2022/11/15 18:11:50;;;;;;;6.00;5.18;;;;;;;;;;10495853;28;20263;-73
2022/11/15 18:16:53;;;;;;;7.63;6.20;;;;;;;;;;10480258;28;20209;-73
2022/11/15 18:21:54;;;;;;;7.82;5.97;;;;;;;;;;10473467;28;20283;-73
2022/11/15 18:26:56;;;;;;;8.88;6.38;;;;;;;;;;10503677;28;20224;-73
2022/11/15 18:31:58;;;;;;;7.30;5.88;;;;;;;;;;10484399;28;20367;-72
2022/11/15 18:37:00;;;;;;;6.65;6.00;;;;;;;;;;10494203;28;20708;-73
2022/11/15 18:42:01;;;;;;;9.10;5.38;;;;;;;;;;10480935;28;20783;-74
2022/11/15 18:47:03;;;;;;;4.85;4.45;;;;;;;;;;10502886;28;20663;-73
2022/11/15 18:52:05;;;;;;;5.95;5.20;;;;;;;;;;10497436;28;20217;-73
2022/11/15 18:57:06;;;;;;;6.20;5.15;;;;;;;;;;10485974;28;20209;-76
2022/11/15 19:02:09;;;;;;;5.70;5.20;;;;;;;;;;10488832;28;20213;-72
2022/11/15 19:07:11;;;;;;;7.05;6.35;;;;;;;;;;10488863;28;20213;-73
2022/11/15 19:12:12;;;;;;;8.25;6.43;;;;;;;;;;10502338;28;20225;-72
2022/11/15 19:17:13;;;;;;;6.28;5.68;;;;;;;;;;10507865;28;20217;-70
2022/11/15 19:22:14;;;;;;;10.77;6.78;;;;;;;;;;10507367;28;20604;-71
2022/11/15 19:27:15;;;;;;;11.00;8.48;;;;;;;;;;10495185;28;20213;-73
2022/11/15 19:32:16;;;;;;;8.50;6.57;;;;;;;;;;10493910;28;20213;-72
2022/11/15 19:37:17;;;;;;;9.82;6.55;;;;;;;;;;10508637;28;20284;-73
2022/11/15 19:42:18;;;;;;;8.32;6.55;;;;;;;;;;10510826;28;20223;-74
2022/11/15 19:47:20;;;;;;;7.13;6.05;;;;;;;;;;10504872;28;20206;-72
2022/11/15 19:52:23;;;;;;;8.15;6.55;;;;;;;;;;10486177;28;20213;-72
2022/11/15 19:57:24;;;;;;;8.90;7.63;;;;;;;;;;10481069;28;21078;-71
2022/11/15 20:02:25;;;;;;;10.30;7.20;;;;;;;;;;10503142;28;20308;-72
2022/11/15 20:07:27;;;;;;;11.27;7.55;;;;;;;;;;10505165;28;20800;-72
2022/11/15 20:12:28;;;;;;;8.38;6.18;;;;;;;;;;10504031;28;20217;-70
2022/11/15 20:17:29;;;;;;;8.35;6.82;;;;;;;;;;10503890;28;20213;-71
2022/11/15 20:22:30;;;;;;;10.32;7.15;;;;;;;;;;10501241;28;20240;-69
2022/11/15 20:27:31;;;;;;;11.95;7.90;;;;;;;;;;10496705;28;20274;-73
2022/11/15 20:32:32;;;;;;;10.50;7.30;;;;;;;;;;10500567;28;20228;-74
2022/11/15 20:37:34;;;;;;;11.55;7.50;;;;;;;;;;10504855;28;20304;-75
2022/11/15 20:42:35;;;;;;;14.15;8.23;;;;;;;;;;10501735;28;20584;-76
2022/11/15 20:47:36;;;;;;;14.10;8.80;;;;;;;;;;10465037;28;20221;-72
2022/11/15 20:52:37;;;;;;;12.48;8.57;;;;;;;;;;10491098;28;20210;-71
2022/11/15 20:57:38;;;;;;;13.43;7.78;;;;;;;;;;10492738;28;20252;-70
2022/11/15 21:02:40;;;;;;;16.73;9.10;;;;;;;;;;10497603;28;20696;-74
2022/11/15 21:07:41;;;;;;;13.45;8.75;;;;;;;;;;10492872;28;20290;-73
2022/11/15 21:12:42;;;;;;;16.65;9.13;;;;;;;;;;10484790;28;20210;-73
2022/11/15 21:17:43;;;;;;;13.75;8.57;;;;;;;;;;10508097;28;20225;-73
2022/11/15 21:22:44;;;;;;;13.48;8.57;;;;;;;;;;10505698;28;20375;-73
2022/11/15 21:27:45;;;;;;;11.23;8.40;;;;;;;;;;10509756;28;20213;-73
2022/11/15 21:32:46;;;;;;;11.75;8.23;;;;;;;;;;10506626;28;20769;-72
2022/11/15 21:37:48;;;;;;;12.00;8.13;;;;;;;;;;10506302;28;20274;-73
2022/11/15 21:42:49;;;;;;;16.20;8.85;;;;;;;;;;10508165;28;20245;-73
2022/11/15 21:47:50;;;;;;;10.98;7.45;;;;;;;;;;10503974;28;20690;-73
2022/11/15 21:52:51;;;;;;;12.07;7.38;;;;;;;;;;10506423;28;20238;-73
2022/11/15 21:57:53;;;;;;;15.05;8.18;;;;;;;;;;10506281;28;20220;-72
2022/11/15 22:02:54;;;;;;;12.27;7.93;;;;;;;;;;10502716;28;20580;-74
2022/11/15 22:07:55;;;;;;;13.60;8.48;;;;;;;;;;10490208;28;20209;-73
2022/11/15 22:12:56;;;;;;;13.48;7.75;;;;;;;;;;10505965;28;20723;-73
2022/11/15 22:17:57;;;;;;;15.77;8.90;;;;;;;;;;10502233;28;20326;-73
2022/11/15 22:23:00;;;;;;;13.60;8.23;;;;;;;;;;10505433;28;20226;-73
2022/11/15 22:28:01;;;;;;;19.42;8.98;;;;;;;;;;10506375;28;20220;-73
2022/11/15 22:33:02;;;;;;;14.02;8.02;;;;;;;;;;10503437;28;20238;-73
2022/11/15 22:38:05;;;;;;;11.32;9.02;;;;;;;;;;10492189;28;20230;-73
2022/11/15 22:43:06;;;;;;;12.30;8.25;;;;;;;;;;10491616;28;20221;-73
2022/11/15 22:48:07;;;;;;;11.82;8.55;;;;;;;;;;10495739;28;20209;-73
2022/11/15 22:53:09;;;;;;;15.70;8.63;;;;;;;;;;10495464;28;20697;-72
2022/11/15 22:58:10;;;;;;;12.13;7.70;;;;;;;;;;10499741;28;20293;-73
2022/11/15 23:03:11;;;;;;;10.68;7.55;;;;;;;;;;10497112;28;20224;-73
2022/11/15 23:08:13;;;;;;;13.23;8.18;;;;;;;;;;10497429;28;20685;-73
2022/11/15 23:13:17;;;;;;;12.32;8.13;;;;;;;;;;10498921;28;20260;-73
2022/11/15 23:18:18;;;;;;;13.05;9.07;;;;;;;;;;10497943;28;20229;-73
2022/11/15 23:23:20;;;;;;;15.50;8.77;;;;;;;;;;10495284;28;20267;-73
2022/11/15 23:28:21;;;;;;;15.60;9.00;;;;;;;;;;10495126;28;20288;-73
2022/11/15 23:38:43;;;;;;;18.70;8.75;;;;;;;;;;10496020;28;20304;-73
2022/11/15 23:43:44;;;;;;;9.77;7.70;;;;;;;;;;10485547;28;20286;-73
2022/11/15 23:48:45;;;;;;;13.98;8.52;;;;;;;;;;10481850;28;20225;-73
2022/11/15 23:53:46;;;;;;;15.57;7.60;;;;;;;;;;10495384;28;20224;-73
2022/11/15 23:58:48;;;;;;;11.23;7.28;;;;;;;;;;10499405;28;20210;-72
